sensor_id;sensor_type;location;lat;lon;timestamp;temperature;humidity
17172;DHT22;8701;50.150;8.756;2023-05-07T00:00:51;17.40;99.90
17172;DHT22;8701;50.150;8.756;2023-05-07T00:04:53;17.40;99.90
17172;DHT22;8701;50.150;8.756;2023-05-07T00:08:56;17.30;99.90
17172;DHT22;8701;50.150;8.756;2023-05-07T00:13:00;17.30;99.90
17172;DHT22;8701;50.150;8.756;2023-05-07T00:17:02;17.30;99.90
17172;DHT22;8701;50.150;8.756;2023-05-07T00:21:04;17.30;99.90
17172;DHT22;8701;50.150;8.756;2023-05-07T00:25:07;17.30;99.90
17172;DHT22;8701;50.150;8.756;2023-05-07T00:29:12;17.20;99.90
17172;DHT22;8701;50.150;8.756;2023-05-07T00:33:14;17.30;99.90
17172;DHT22;8701;50.150;8.756;2023-05-07T00:37:16;17.30;99.90
17172;DHT22;8701;50.150;8.756;2023-05-07T00:41:19;17.30;99.90
17172;DHT22;8701;50.150;8.756;2023-05-07T00:45:23;17.30;99.90
17172;DHT22;8701;50.150;8.756;2023-05-07T00:49:35;17.30;99.90
17172;DHT22;8701;50.150;8.756;2023-05-07T00:53:39;17.20;99.90
17172;DHT22;8701;50.150;8.756;2023-05-07T00:57:41;17.20;99.90
17172;DHT22;8701;50.150;8.756;2023-05-07T01:01:45;17.20;99.90
17172;DHT22;8701;50.150;8.756;2023-05-07T01:05:48;17.20;99.90
17172;DHT22;8701;50.150;8.756;2023-05-07T01:09:51;17.20;99.90
17172;DHT22;8701;50.150;8.756;2023-05-07T01:13:54;17.10;99.90
17172;DHT22;8701;50.150;8.756;2023-05-07T01:18:05;17.10;99.90
17172;DHT22;8701;50.150;8.756;2023-05-07T01:22:10;17.00;99.90
17172;DHT22;8701;50.150;8.756;2023-05-07T01:26:24;17.00;99.90
17172;DHT22;8701;50.150;8.756;2023-05-07T01:30:26;17.00;99.90
17172;DHT22;8701;50.150;8.756;2023-05-07T01:34:31;16.90;99.90
17172;DHT22;8701;50.150;8.756;2023-05-07T01:38:35;16.90;99.90
17172;DHT22;8701;50.150;8.756;2023-05-07T01:42:39;16.90;99.90
17172;DHT22;8701;50.150;8.756;2023-05-07T01:46:42;16.90;99.90
17172;DHT22;8701;50.150;8.756;2023-05-07T01:50:44;16.90;99.90
17172;DHT22;8701;50.150;8.756;2023-05-07T01:54:47;16.90;99.90
17172;DHT22;8701;50.150;8.756;2023-05-07T01:58:50;16.90;99.90
17172;DHT22;8701;50.150;8.756;2023-05-07T02:02:54;16.80;99.90
17172;DHT22;8701;50.150;8.756;2023-05-07T02:07:27;16.80;99.90
17172;DHT22;8701;50.150;8.756;2023-05-07T02:11:29;16.80;99.90
17172;DHT22;8701;50.150;8.756;2023-05-07T02:15:33;16.80;99.90
17172;DHT22;8701;50.150;8.756;2023-05-07T02:19:37;16.80;99.90
17172;DHT22;8701;50.150;8.756;2023-05-07T02:23:40;16.80;99.90
17172;DHT22;8701;50.150;8.756;2023-05-07T02:27:42;16.80;99.90
17172;DHT22;8701;50.150;8.756;2023-05-07T02:31:47;16.70;99.90
17172;DHT22;8701;50.150;8.756;2023-05-07T02:35:51;16.70;99.90
17172;DHT22;8701;50.150;8.756;2023-05-07T02:39:54;16.70;99.90
17172;DHT22;8701;50.150;8.756;2023-05-07T02:43:56;16.70;99.90
17172;DHT22;8701;50.150;8.756;2023-05-07T02:48:00;16.70;99.90
17172;DHT22;8701;50.150;8.756;2023-05-07T02:52:02;16.70;99.90
17172;DHT22;8701;50.150;8.756;2023-05-07T02:56:05;16.70;99.90
17172;DHT22;8701;50.150;8.756;2023-05-07T03:00:12;16.70;99.90
17172;DHT22;8701;50.150;8.756;2023-05-07T03:04:21;16.70;99.90
17172;DHT22;8701;50.150;8.756;2023-05-07T03:08:24;16.60;99.90
17172;DHT22;8701;50.150;8.756;2023-05-07T03:12:26;16.60;99.90
17172;DHT22;8701;50.150;8.756;2023-05-07T03:16:28;16.60;99.90
17172;DHT22;8701;50.150;8.756;2023-05-07T03:20:32;16.50;99.90
17172;DHT22;8701;50.150;8.756;2023-05-07T03:24:34;16.50;99.90
17172;DHT22;8701;50.150;8.756;2023-05-07T03:28:36;16.50;99.90
17172;DHT22;8701;50.150;8.756;2023-05-07T03:32:42;16.50;99.90
17172;DHT22;8701;50.150;8.756;2023-05-07T03:36:48;16.50;99.90
17172;DHT22;8701;50.150;8.756;2023-05-07T03:40:50;16.50;99.90
17172;DHT22;8701;50.150;8.756;2023-05-07T03:44:53;16.50;99.90
17172;DHT22;8701;50.150;8.756;2023-05-07T03:48:55;16.50;99.90
17172;DHT22;8701;50.150;8.756;2023-05-07T03:52:59;16.40;99.90
17172;DHT22;8701;50.150;8.756;2023-05-07T03:57:03;16.40;99.90
17172;DHT22;8701;50.150;8.756;2023-05-07T04:01:05;16.40;99.90
17172;DHT22;8701;50.150;8.756;2023-05-07T04:05:08;16.30;99.90
17172;DHT22;8701;50.150;8.756;2023-05-07T04:09:14;16.30;99.90
17172;DHT22;8701;50.150;8.756;2023-05-07T04:13:16;16.30;99.90
17172;DHT22;8701;50.150;8.756;2023-05-07T04:17:19;16.30;99.90
17172;DHT22;8701;50.150;8.756;2023-05-07T04:21:21;16.30;99.90
17172;DHT22;8701;50.150;8.756;2023-05-07T04:25:26;16.30;99.90
17172;DHT22;8701;50.150;8.756;2023-05-07T04:29:36;16.20;99.90
17172;DHT22;8701;50.150;8.756;2023-05-07T04:33:39;16.20;99.90
17172;DHT22;8701;50.150;8.756;2023-05-07T04:37:45;16.20;99.90
17172;DHT22;8701;50.150;8.756;2023-05-07T04:41:50;16.20;99.90
17172;DHT22;8701;50.150;8.756;2023-05-07T04:45:52;16.20;99.90
17172;DHT22;8701;50.150;8.756;2023-05-07T04:49:57;16.20;99.90
17172;DHT22;8701;50.150;8.756;2023-05-07T04:53:59;16.30;99.90
17172;DHT22;8701;50.150;8.756;2023-05-07T04:58:06;16.30;99.90
17172;DHT22;8701;50.150;8.756;2023-05-07T05:02:11;16.40;99.90
17172;DHT22;8701;50.150;8.756;2023-05-07T05:06:14;16.30;99.90
17172;DHT22;8701;50.150;8.756;2023-05-07T05:10:16;16.30;99.90
17172;DHT22;8701;50.150;8.756;2023-05-07T05:14:20;16.30;99.90
17172;DHT22;8701;50.150;8.756;2023-05-07T05:18:23;16.40;99.90
17172;DHT22;8701;50.150;8.756;2023-05-07T05:22:25;16.40;99.90
17172;DHT22;8701;50.150;8.756;2023-05-07T05:26:31;16.40;99.90
17172;DHT22;8701;50.150;8.756;2023-05-07T05:30:35;16.40;99.90
17172;DHT22;8701;50.150;8.756;2023-05-07T05:34:37;16.50;99.90
17172;DHT22;8701;50.150;8.756;2023-05-07T05:38:40;16.50;99.90
17172;DHT22;8701;50.150;8.756;2023-05-07T05:42:44;16.50;99.90
17172;DHT22;8701;50.150;8.756;2023-05-07T05:46:49;16.60;99.90
17172;DHT22;8701;50.150;8.756;2023-05-07T05:50:51;16.60;99.90
17172;DHT22;8701;50.150;8.756;2023-05-07T05:54:54;16.60;99.90
17172;DHT22;8701;50.150;8.756;2023-05-07T05:58:56;16.60;99.90
17172;DHT22;8701;50.150;8.756;2023-05-07T06:03:01;16.70;99.90
17172;DHT22;8701;50.150;8.756;2023-05-07T06:07:03;16.80;99.90
17172;DHT22;8701;50.150;8.756;2023-05-07T06:11:06;16.90;99.90
17172;DHT22;8701;50.150;8.756;2023-05-07T06:15:12;16.90;99.90
17172;DHT22;8701;50.150;8.756;2023-05-07T06:19:16;17.00;99.90
17172;DHT22;8701;50.150;8.756;2023-05-07T06:23:24;17.10;99.90
17172;DHT22;8701;50.150;8.756;2023-05-07T06:27:27;17.10;99.90
17172;DHT22;8701;50.150;8.756;2023-05-07T06:31:30;17.20;99.90
17172;DHT22;8701;50.150;8.756;2023-05-07T06:35:41;17.30;99.90
17172;DHT22;8701;50.150;8.756;2023-05-07T06:39:43;17.40;99.90
17172;DHT22;8701;50.150;8.756;2023-05-07T06:43:45;17.60;99.90
17172;DHT22;8701;50.150;8.756;2023-05-07T06:48:00;17.70;99.90
17172;DHT22;8701;50.150;8.756;2023-05-07T06:52:08;17.80;99.90
17172;DHT22;8701;50.150;8.756;2023-05-07T06:56:11;17.90;99.90
17172;DHT22;8701;50.150;8.756;2023-05-07T07:00:15;18.10;99.90
17172;DHT22;8701;50.150;8.756;2023-05-07T07:04:26;18.10;99.90
17172;DHT22;8701;50.150;8.756;2023-05-07T07:08:37;18.20;99.90
17172;DHT22;8701;50.150;8.756;2023-05-07T07:12:41;18.20;99.90
17172;DHT22;8701;50.150;8.756;2023-05-07T07:16:44;18.40;99.90
17172;DHT22;8701;50.150;8.756;2023-05-07T07:20:48;18.60;99.90
17172;DHT22;8701;50.150;8.756;2023-05-07T07:24:52;18.90;99.90
17172;DHT22;8701;50.150;8.756;2023-05-07T07:28:55;19.20;99.90
17172;DHT22;8701;50.150;8.756;2023-05-07T07:32:58;19.40;99.90
17172;DHT22;8701;50.150;8.756;2023-05-07T07:37:03;19.60;99.90
17172;DHT22;8701;50.150;8.756;2023-05-07T07:41:09;19.80;99.90
17172;DHT22;8701;50.150;8.756;2023-05-07T07:45:12;20.00;99.90
17172;DHT22;8701;50.150;8.756;2023-05-07T07:49:19;20.20;99.90
17172;DHT22;8701;50.150;8.756;2023-05-07T07:53:22;20.30;99.90
17172;DHT22;8701;50.150;8.756;2023-05-07T07:57:26;20.50;99.90
17172;DHT22;8701;50.150;8.756;2023-05-07T08:01:30;20.60;99.90
17172;DHT22;8701;50.150;8.756;2023-05-07T08:05:33;20.90;99.90
17172;DHT22;8701;50.150;8.756;2023-05-07T08:09:36;21.00;99.90
17172;DHT22;8701;50.150;8.756;2023-05-07T08:13:40;20.90;99.90
17172;DHT22;8701;50.150;8.756;2023-05-07T08:17:44;20.90;99.90
17172;DHT22;8701;50.150;8.756;2023-05-07T08:21:46;21.10;99.90
17172;DHT22;8701;50.150;8.756;2023-05-07T08:25:49;21.30;99.90
17172;DHT22;8701;50.150;8.756;2023-05-07T08:29:54;21.40;99.90
17172;DHT22;8701;50.150;8.756;2023-05-07T08:33:57;21.60;99.90
17172;DHT22;8701;50.150;8.756;2023-05-07T08:38:00;21.50;99.90
17172;DHT22;8701;50.150;8.756;2023-05-07T08:42:04;21.40;99.90
17172;DHT22;8701;50.150;8.756;2023-05-07T08:46:10;21.20;99.90
17172;DHT22;8701;50.150;8.756;2023-05-07T08:50:17;21.10;99.90
17172;DHT22;8701;50.150;8.756;2023-05-07T08:54:21;21.00;99.90
17172;DHT22;8701;50.150;8.756;2023-05-07T08:58:23;21.10;99.90
17172;DHT22;8701;50.150;8.756;2023-05-07T09:02:27;21.20;99.90
17172;DHT22;8701;50.150;8.756;2023-05-07T09:06:30;21.40;99.90
17172;DHT22;8701;50.150;8.756;2023-05-07T09:10:34;21.40;99.90
17172;DHT22;8701;50.150;8.756;2023-05-07T09:14:37;21.60;99.90
17172;DHT22;8701;50.150;8.756;2023-05-07T09:18:42;21.70;99.90
17172;DHT22;8701;50.150;8.756;2023-05-07T09:22:48;21.80;99.90
17172;DHT22;8701;50.150;8.756;2023-05-07T09:26:52;22.10;99.90
17172;DHT22;8701;50.150;8.756;2023-05-07T09:30:55;22.40;99.90
17172;DHT22;8701;50.150;8.756;2023-05-07T09:34:59;22.80;99.90
17172;DHT22;8701;50.150;8.756;2023-05-07T09:39:02;23.80;99.90
17172;DHT22;8701;50.150;8.756;2023-05-07T09:43:11;25.00;99.90
17172;DHT22;8701;50.150;8.756;2023-05-07T09:47:24;25.60;99.90
17172;DHT22;8701;50.150;8.756;2023-05-07T09:51:34;25.50;99.90
17172;DHT22;8701;50.150;8.756;2023-05-07T09:55:40;25.40;99.90
17172;DHT22;8701;50.150;8.756;2023-05-07T09:59:43;25.10;99.90
17172;DHT22;8701;50.150;8.756;2023-05-07T10:03:51;24.80;99.90
17172;DHT22;8701;50.150;8.756;2023-05-07T10:07:56;25.20;99.90
17172;DHT22;8701;50.150;8.756;2023-05-07T10:11:59;26.20;99.90
17172;DHT22;8701;50.150;8.756;2023-05-07T10:16:03;27.20;99.90
17172;DHT22;8701;50.150;8.756;2023-05-07T10:20:10;27.70;99.90
17172;DHT22;8701;50.150;8.756;2023-05-07T10:24:21;28.00;99.90
17172;DHT22;8701;50.150;8.756;2023-05-07T10:28:24;28.60;99.90
17172;DHT22;8701;50.150;8.756;2023-05-07T10:32:38;28.80;99.90
17172;DHT22;8701;50.150;8.756;2023-05-07T10:36:43;29.10;99.90
17172;DHT22;8701;50.150;8.756;2023-05-07T10:40:48;29.50;99.90
17172;DHT22;8701;50.150;8.756;2023-05-07T10:44:52;29.40;99.90
17172;DHT22;8701;50.150;8.756;2023-05-07T10:49:12;29.70;99.90
17172;DHT22;8701;50.150;8.756;2023-05-07T10:53:29;29.70;99.70
17172;DHT22;8701;50.150;8.756;2023-05-07T10:57:42;29.40;98.80
17172;DHT22;8701;50.150;8.756;2023-05-07T11:01:55;29.10;99.30
17172;DHT22;8701;50.150;8.756;2023-05-07T11:06:10;28.80;98.10
17172;DHT22;8701;50.150;8.756;2023-05-07T11:10:20;28.40;99.20
17172;DHT22;8701;50.150;8.756;2023-05-07T11:14:47;28.30;98.80
17172;DHT22;8701;50.150;8.756;2023-05-07T11:18:56;28.20;99.70
17172;DHT22;8701;50.150;8.756;2023-05-07T11:23:05;28.00;99.10
17172;DHT22;8701;50.150;8.756;2023-05-07T11:27:12;28.00;99.90
17172;DHT22;8701;50.150;8.756;2023-05-07T11:31:21;28.10;99.90
17172;DHT22;8701;50.150;8.756;2023-05-07T11:35:24;28.30;99.90
17172;DHT22;8701;50.150;8.756;2023-05-07T11:39:29;28.40;98.60
17172;DHT22;8701;50.150;8.756;2023-05-07T11:43:33;28.80;99.90
17172;DHT22;8701;50.150;8.756;2023-05-07T11:47:37;29.00;97.10
17172;DHT22;8701;50.150;8.756;2023-05-07T11:51:43;29.20;96.20
17172;DHT22;8701;50.150;8.756;2023-05-07T11:55:47;29.40;99.90
17172;DHT22;8701;50.150;8.756;2023-05-07T11:59:53;29.80;98.90
17172;DHT22;8701;50.150;8.756;2023-05-07T12:03:56;29.80;97.00
17172;DHT22;8701;50.150;8.756;2023-05-07T12:07:58;29.90;99.10
17172;DHT22;8701;50.150;8.756;2023-05-07T12:12:03;30.00;99.40
17172;DHT22;8701;50.150;8.756;2023-05-07T12:16:06;30.10;95.60
17172;DHT22;8701;50.150;8.756;2023-05-07T12:20:11;30.10;96.80
17172;DHT22;8701;50.150;8.756;2023-05-07T12:24:14;29.80;96.80
17172;DHT22;8701;50.150;8.756;2023-05-07T12:28:17;29.60;95.70
17172;DHT22;8701;50.150;8.756;2023-05-07T12:32:21;29.30;97.50
17172;DHT22;8701;50.150;8.756;2023-05-07T12:36:24;29.10;99.90
17172;DHT22;8701;50.150;8.756;2023-05-07T12:40:36;28.90;97.00
17172;DHT22;8701;50.150;8.756;2023-05-07T12:44:38;28.60;99.70
17172;DHT22;8701;50.150;8.756;2023-05-07T12:48:43;28.70;96.10
17172;DHT22;8701;50.150;8.756;2023-05-07T12:52:48;28.50;99.90
17172;DHT22;8701;50.150;8.756;2023-05-07T12:56:50;28.20;97.80
17172;DHT22;8701;50.150;8.756;2023-05-07T13:00:53;28.10;98.70
17172;DHT22;8701;50.150;8.756;2023-05-07T13:04:55;27.90;96.50
17172;DHT22;8701;50.150;8.756;2023-05-07T13:08:59;27.90;96.20
17172;DHT22;8701;50.150;8.756;2023-05-07T13:13:01;27.70;99.90
17172;DHT22;8701;50.150;8.756;2023-05-07T13:17:03;27.90;97.10
17172;DHT22;8701;50.150;8.756;2023-05-07T13:21:05;28.00;98.80
17172;DHT22;8701;50.150;8.756;2023-05-07T13:25:09;27.90;98.70
17172;DHT22;8701;50.150;8.756;2023-05-07T13:29:12;27.70;96.40
17172;DHT22;8701;50.150;8.756;2023-05-07T13:33:14;27.30;99.00
17172;DHT22;8701;50.150;8.756;2023-05-07T13:37:16;27.00;97.50
17172;DHT22;8701;50.150;8.756;2023-05-07T13:41:19;26.80;98.10
17172;DHT22;8701;50.150;8.756;2023-05-07T13:45:22;26.80;98.20
17172;DHT22;8701;50.150;8.756;2023-05-07T13:49:26;26.80;96.50
17172;DHT22;8701;50.150;8.756;2023-05-07T13:53:28;26.70;97.20
17172;DHT22;8701;50.150;8.756;2023-05-07T13:57:32;26.70;96.70
17172;DHT22;8701;50.150;8.756;2023-05-07T14:01:34;26.70;97.00
17172;DHT22;8701;50.150;8.756;2023-05-07T14:05:36;26.70;97.00
17172;DHT22;8701;50.150;8.756;2023-05-07T14:09:38;26.80;97.90
17172;DHT22;8701;50.150;8.756;2023-05-07T14:13:42;26.60;98.00
17172;DHT22;8701;50.150;8.756;2023-05-07T14:17:44;26.50;97.20
17172;DHT22;8701;50.150;8.756;2023-05-07T14:21:47;26.20;97.40
17172;DHT22;8701;50.150;8.756;2023-05-07T14:25:49;26.00;98.50
17172;DHT22;8701;50.150;8.756;2023-05-07T14:29:53;25.80;97.80
17172;DHT22;8701;50.150;8.756;2023-05-07T14:33:55;25.60;98.30
17172;DHT22;8701;50.150;8.756;2023-05-07T14:37:58;25.60;97.70
17172;DHT22;8701;50.150;8.756;2023-05-07T14:42:01;25.40;98.30
17172;DHT22;8701;50.150;8.756;2023-05-07T14:46:04;25.40;98.90
17172;DHT22;8701;50.150;8.756;2023-05-07T14:50:07;25.40;98.50
17172;DHT22;8701;50.150;8.756;2023-05-07T14:54:09;25.30;98.00
17172;DHT22;8701;50.150;8.756;2023-05-07T14:58:12;25.20;99.80
17172;DHT22;8701;50.150;8.756;2023-05-07T15:02:15;25.10;98.70
17172;DHT22;8701;50.150;8.756;2023-05-07T15:06:18;25.10;99.20
17172;DHT22;8701;50.150;8.756;2023-05-07T15:10:20;24.90;98.70
17172;DHT22;8701;50.150;8.756;2023-05-07T15:14:22;24.80;99.00
17172;DHT22;8701;50.150;8.756;2023-05-07T15:18:26;24.60;99.90
17172;DHT22;8701;50.150;8.756;2023-05-07T15:22:28;24.50;99.10
17172;DHT22;8701;50.150;8.756;2023-05-07T15:26:30;24.30;99.20
17172;DHT22;8701;50.150;8.756;2023-05-07T15:30:32;24.20;99.80
17172;DHT22;8701;50.150;8.756;2023-05-07T15:34:36;24.10;99.90
17172;DHT22;8701;50.150;8.756;2023-05-07T15:38:38;24.00;99.30
17172;DHT22;8701;50.150;8.756;2023-05-07T15:42:41;23.90;99.20
17172;DHT22;8701;50.150;8.756;2023-05-07T15:46:43;23.80;99.80
17172;DHT22;8701;50.150;8.756;2023-05-07T15:50:46;23.70;99.90
17172;DHT22;8701;50.150;8.756;2023-05-07T15:54:49;23.60;99.90
17172;DHT22;8701;50.150;8.756;2023-05-07T15:58:51;23.50;99.90
17172;DHT22;8701;50.150;8.756;2023-05-07T16:02:54;23.50;99.90
17172;DHT22;8701;50.150;8.756;2023-05-07T16:06:57;23.40;99.90
17172;DHT22;8701;50.150;8.756;2023-05-07T16:11:00;23.30;99.90
17172;DHT22;8701;50.150;8.756;2023-05-07T16:15:02;23.20;99.90
17172;DHT22;8701;50.150;8.756;2023-05-07T16:19:04;23.20;99.90
17172;DHT22;8701;50.150;8.756;2023-05-07T16:23:08;23.20;99.90
17172;DHT22;8701;50.150;8.756;2023-05-07T16:27:10;23.10;99.90
17172;DHT22;8701;50.150;8.756;2023-05-07T16:31:13;23.10;99.90
17172;DHT22;8701;50.150;8.756;2023-05-07T16:35:15;23.00;99.90
17172;DHT22;8701;50.150;8.756;2023-05-07T16:39:19;22.90;99.90
17172;DHT22;8701;50.150;8.756;2023-05-07T16:43:21;22.90;99.90
17172;DHT22;8701;50.150;8.756;2023-05-07T16:47:23;22.80;99.90
17172;DHT22;8701;50.150;8.756;2023-05-07T16:51:25;22.70;99.90
17172;DHT22;8701;50.150;8.756;2023-05-07T16:55:29;22.70;99.90
17172;DHT22;8701;50.150;8.756;2023-05-07T16:59:34;22.60;99.90
17172;DHT22;8701;50.150;8.756;2023-05-07T17:03:37;22.60;99.90
17172;DHT22;8701;50.150;8.756;2023-05-07T17:07:39;22.60;99.90
17172;DHT22;8701;50.150;8.756;2023-05-07T17:11:42;22.50;99.90
17172;DHT22;8701;50.150;8.756;2023-05-07T17:15:44;22.50;99.90
17172;DHT22;8701;50.150;8.756;2023-05-07T17:19:47;22.50;99.90
17172;DHT22;8701;50.150;8.756;2023-05-07T17:23:49;22.40;99.90
17172;DHT22;8701;50.150;8.756;2023-05-07T17:27:53;22.30;99.90
17172;DHT22;8701;50.150;8.756;2023-05-07T17:31:55;22.00;99.90
17172;DHT22;8701;50.150;8.756;2023-05-07T17:35:57;21.70;99.90
17172;DHT22;8701;50.150;8.756;2023-05-07T17:39:59;21.50;99.90
17172;DHT22;8701;50.150;8.756;2023-05-07T17:44:03;21.00;99.90
17172;DHT22;8701;50.150;8.756;2023-05-07T17:48:06;20.70;99.90
17172;DHT22;8701;50.150;8.756;2023-05-07T17:52:09;20.40;99.90
17172;DHT22;8701;50.150;8.756;2023-05-07T17:56:11;20.30;99.90
17172;DHT22;8701;50.150;8.756;2023-05-07T18:00:15;20.30;99.90
17172;DHT22;8701;50.150;8.756;2023-05-07T18:04:17;20.30;99.90
17172;DHT22;8701;50.150;8.756;2023-05-07T18:08:21;20.20;99.90
17172;DHT22;8701;50.150;8.756;2023-05-07T18:12:23;20.10;99.90
17172;DHT22;8701;50.150;8.756;2023-05-07T18:16:27;20.10;99.90
17172;DHT22;8701;50.150;8.756;2023-05-07T18:20:29;19.90;99.90
17172;DHT22;8701;50.150;8.756;2023-05-07T18:24:31;19.80;99.90
17172;DHT22;8701;50.150;8.756;2023-05-07T18:28:33;19.70;99.90
17172;DHT22;8701;50.150;8.756;2023-05-07T18:32:37;19.70;99.90
17172;DHT22;8701;50.150;8.756;2023-05-07T18:36:39;19.60;99.90
17172;DHT22;8701;50.150;8.756;2023-05-07T18:40:41;19.50;99.90
17172;DHT22;8701;50.150;8.756;2023-05-07T18:44:44;19.50;99.90
17172;DHT22;8701;50.150;8.756;2023-05-07T18:48:48;19.50;99.90
17172;DHT22;8701;50.150;8.756;2023-05-07T18:52:50;19.50;99.90
17172;DHT22;8701;50.150;8.756;2023-05-07T18:56:52;19.40;99.90
17172;DHT22;8701;50.150;8.756;2023-05-07T19:00:55;19.30;99.90
17172;DHT22;8701;50.150;8.756;2023-05-07T19:04:58;19.30;99.90
17172;DHT22;8701;50.150;8.756;2023-05-07T19:09:00;19.30;99.90
17172;DHT22;8701;50.150;8.756;2023-05-07T19:13:03;19.30;99.90
17172;DHT22;8701;50.150;8.756;2023-05-07T19:17:05;19.40;99.90
17172;DHT22;8701;50.150;8.756;2023-05-07T19:21:09;19.30;99.90
17172;DHT22;8701;50.150;8.756;2023-05-07T19:25:12;19.30;99.90
17172;DHT22;8701;50.150;8.756;2023-05-07T19:29:14;19.20;99.90
17172;DHT22;8701;50.150;8.756;2023-05-07T19:33:16;19.00;99.90
17172;DHT22;8701;50.150;8.756;2023-05-07T19:37:20;19.10;99.90
17172;DHT22;8701;50.150;8.756;2023-05-07T19:41:25;19.20;99.90
17172;DHT22;8701;50.150;8.756;2023-05-07T19:45:27;19.10;99.90
17172;DHT22;8701;50.150;8.756;2023-05-07T19:49:30;19.10;99.90
17172;DHT22;8701;50.150;8.756;2023-05-07T19:53:33;19.10;99.90
17172;DHT22;8701;50.150;8.756;2023-05-07T19:57:35;19.10;99.90
17172;DHT22;8701;50.150;8.756;2023-05-07T20:01:38;19.10;99.90
17172;DHT22;8701;50.150;8.756;2023-05-07T20:05:40;19.10;99.90
17172;DHT22;8701;50.150;8.756;2023-05-07T20:09:44;19.10;99.90
17172;DHT22;8701;50.150;8.756;2023-05-07T20:13:46;19.10;99.90
17172;DHT22;8701;50.150;8.756;2023-05-07T20:17:48;19.10;99.90
17172;DHT22;8701;50.150;8.756;2023-05-07T20:21:50;19.10;99.90
17172;DHT22;8701;50.150;8.756;2023-05-07T20:25:55;19.10;99.90
17172;DHT22;8701;50.150;8.756;2023-05-07T20:29:58;19.10;99.90
17172;DHT22;8701;50.150;8.756;2023-05-07T20:34:00;19.00;99.90
17172;DHT22;8701;50.150;8.756;2023-05-07T20:38:02;18.90;99.90
17172;DHT22;8701;50.150;8.756;2023-05-07T20:42:06;18.90;99.90
17172;DHT22;8701;50.150;8.756;2023-05-07T20:46:08;18.90;99.90
17172;DHT22;8701;50.150;8.756;2023-05-07T20:50:10;18.80;99.90
17172;DHT22;8701;50.150;8.756;2023-05-07T20:54:12;18.70;99.90
17172;DHT22;8701;50.150;8.756;2023-05-07T20:58:16;18.70;99.90
17172;DHT22;8701;50.150;8.756;2023-05-07T21:02:18;18.70;99.90
17172;DHT22;8701;50.150;8.756;2023-05-07T21:06:21;18.70;99.90
17172;DHT22;8701;50.150;8.756;2023-05-07T21:10:23;18.60;99.90
17172;DHT22;8701;50.150;8.756;2023-05-07T21:14:26;18.60;99.90
17172;DHT22;8701;50.150;8.756;2023-05-07T21:18:29;18.60;99.90
17172;DHT22;8701;50.150;8.756;2023-05-07T21:22:32;18.50;99.90
17172;DHT22;8701;50.150;8.756;2023-05-07T21:26:34;18.50;99.90
17172;DHT22;8701;50.150;8.756;2023-05-07T21:30:38;18.50;99.90
17172;DHT22;8701;50.150;8.756;2023-05-07T21:34:40;18.40;99.90
17172;DHT22;8701;50.150;8.756;2023-05-07T21:38:42;18.40;99.90
17172;DHT22;8701;50.150;8.756;2023-05-07T21:42:44;18.30;99.90
17172;DHT22;8701;50.150;8.756;2023-05-07T21:46:53;18.20;99.90
17172;DHT22;8701;50.150;8.756;2023-05-07T21:50:59;18.20;99.90
17172;DHT22;8701;50.150;8.756;2023-05-07T21:55:02;18.00;99.90
17172;DHT22;8701;50.150;8.756;2023-05-07T21:59:04;18.00;99.90
17172;DHT22;8701;50.150;8.756;2023-05-07T22:03:08;17.90;99.90
17172;DHT22;8701;50.150;8.756;2023-05-07T22:07:10;18.00;99.90
17172;DHT22;8701;50.150;8.756;2023-05-07T22:11:12;17.90;99.90
17172;DHT22;8701;50.150;8.756;2023-05-07T22:15:14;17.80;99.90
17172;DHT22;8701;50.150;8.756;2023-05-07T22:19:18;17.80;99.90
17172;DHT22;8701;50.150;8.756;2023-05-07T22:23:20;17.80;99.90
17172;DHT22;8701;50.150;8.756;2023-05-07T22:27:22;17.70;99.90
17172;DHT22;8701;50.150;8.756;2023-05-07T22:31:25;17.70;99.90
17172;DHT22;8701;50.150;8.756;2023-05-07T22:35:28;17.70;99.90
17172;DHT22;8701;50.150;8.756;2023-05-07T22:39:30;17.70;99.90
17172;DHT22;8701;50.150;8.756;2023-05-07T22:43:35;17.60;99.90
17172;DHT22;8701;50.150;8.756;2023-05-07T22:47:37;17.50;99.90
17172;DHT22;8701;50.150;8.756;2023-05-07T22:51:41;17.50;99.90
17172;DHT22;8701;50.150;8.756;2023-05-07T22:55:43;17.50;99.90
17172;DHT22;8701;50.150;8.756;2023-05-07T22:59:46;17.50;99.90
17172;DHT22;8701;50.150;8.756;2023-05-07T23:03:48;17.50;99.90
17172;DHT22;8701;50.150;8.756;2023-05-07T23:07:51;17.50;99.90
17172;DHT22;8701;50.150;8.756;2023-05-07T23:11:54;17.40;99.90
17172;DHT22;8701;50.150;8.756;2023-05-07T23:15:56;17.40;99.90
17172;DHT22;8701;50.150;8.756;2023-05-07T23:19:59;17.40;99.90
17172;DHT22;8701;50.150;8.756;2023-05-07T23:24:02;17.40;99.90
17172;DHT22;8701;50.150;8.756;2023-05-07T23:28:04;17.30;99.90
17172;DHT22;8701;50.150;8.756;2023-05-07T23:32:07;17.30;99.90
17172;DHT22;8701;50.150;8.756;2023-05-07T23:36:09;17.20;99.90
17172;DHT22;8701;50.150;8.756;2023-05-07T23:40:12;17.10;99.90
17172;DHT22;8701;50.150;8.756;2023-05-07T23:44:15;17.10;99.90
17172;DHT22;8701;50.150;8.756;2023-05-07T23:48:17;17.10;99.90
17172;DHT22;8701;50.150;8.756;2023-05-07T23:52:19;17.10;99.90
17172;DHT22;8701;50.150;8.756;2023-05-07T23:56:23;17.00;99.90
